Flight Track Log - Related Links

Times and Time Zones

All times are in EST time to prevent confusion due to time zone crossing. See the N789EX flight status page for this flight to view local times or setup timezone preferences in your user account.

Time Position Orientation Groundspeed Altitude Reporting Facility
EST Latitude Longitude Course Direction KTS MPH feet Rate Location/Type
Sat 03:27:24 PM 47.3525 -119.3622 68° East 225 259 7,100  Level Seattle Center
Sat 03:28:25 PM 47.3764 -119.2744 68° East 235 270 6,900 -49 Descending Seattle Center
Sat 03:29:26 PM 47.3803 -119.1872 86° East 248 285 7,000 98 Climbing Seattle Center
Sat 03:30:27 PM 47.3619 -119.0856 105° East 259 298 7,100 1,721 Climbing Seattle Center
Sat 03:31:28 PM 47.3381 -118.9839 109° East 266 306 10,500 1,623 Climbing Seattle Center
Sat 03:32:29 PM 47.3097 -118.8689 110° East 297 342 10,400 -1,672 Descending Seattle Center
Sat 03:33:30 PM 47.3008 -118.7444 96° East 292 336 7,100 -1,131 Descending Seattle Center
Sat 03:34:31 PM 47.3389 -118.8139 309° West 264 304 8,100 2,607 Climbing Seattle Center
Sat 03:35:32 PM 47.3511 -118.9300 279° West 287 330 12,400 3,934 Climbing Seattle Center
Sat 03:36:33 PM 47.3603 -119.0589 276° West 315 362 16,100 2,557 Climbing Seattle Center
Sat 03:37:34 PM 47.3725 -119.2114 277° West 388 447 17,600 1,770 Climbing Seattle Center
Sat 03:38:35 PM 47.4033 -119.3803 285° West 422 486 19,700 2,607 Climbing Seattle Center
Sat 03:39:36 PM 47.4375 -119.5594 286° West 445 512 22,900 3,000 Climbing Seattle Center
Sat 03:40:37 PM 47.4708 -119.7392 285° West 453 521 25,800 2,508 Climbing Seattle Center
Sat 03:41:38 PM 47.5069 -119.9267 286° West 472 543 28,000 2,016 Climbing Seattle Center
Sat 03:42:39 PM 47.5425 -120.1183 285° West 482 555 29,900 934 Climbing Seattle Center
Sat 03:43:40 PM 47.5747 -120.2883 286° West 428 493 29,900 49 Level Seattle Center
Sat 03:44:41 PM 47.6022 -120.4478 284° West 403 464 30,000  Climbing Seattle Center
Sat 03:45:42 PM 47.6311 -120.6064 285° West 400 460 29,900 -246 Descending Seattle Center
Sat 03:46:43 PM 47.6631 -120.7958 284° West 395 455 29,500 393 Descending Seattle Center
Sat 03:47:44 PM 47.6917 -120.9464 286° West 394 453 30,700 492 Climbing Seattle Center
Sat 03:48:45 PM 47.7206 -121.1047 285° West 397 457 30,500 -98 Descending Seattle Center
Sat 03:49:46 PM 47.7500 -121.2603 286° West 394 453 30,500  Level Seattle Center
Sat 03:50:47 PM 47.7772 -121.4178 284° West 396 456 30,500  Level Seattle Center
Sat 03:51:48 PM 47.8036 -121.5750 284° West 395 455 30,500  Level Seattle Center
Sat 03:52:49 PM 47.8300 -121.7319 284° West 394 453 30,500  Level Seattle Center
Sat 03:53:50 PM 47.8614 -121.9206 284° West 394 453 30,500  Level Seattle Center
Sat 03:54:51 PM 47.8797 -122.0775 280° West 395 455 30,500  Level Seattle Center
Sat 03:55:52 PM 47.8736 -122.2406 267° West 398 458 30,500  Level Seattle Center
Sat 03:56:53 PM 47.8672 -122.4008 267° West 396 456 30,500  Level Seattle Center
Sat 03:57:54 PM 47.8614 -122.5619 267° West 397 457 30,500  Level Seattle Center
Sat 03:58:55 PM 47.8561 -122.7239 267° West 397 457 30,500  Level Seattle Center
Sat 03:59:56 PM 47.8508 -122.8856 267° West 396 456 30,500  Level Seattle Center
Sat 04:00:57 PM 47.8456 -123.0478 267° West 395 455 30,500 49 Level Seattle Center
Sat 04:01:58 PM 47.8372 -123.2417 266° West 394 453 30,600 49 Climbing Seattle Center
Sat 04:02:59 PM 47.8272 -123.4019 265° West 393 452 30,600 -148 Level Seattle Center
Sat 04:04:00 PM 47.8072 -123.5608 259° West 392 451 30,300 -98 Descending Seattle Center
Sat 04:05:01 PM 47.7883 -123.7108 259° West 392 451 30,400 148 Climbing Seattle Center
Sat 04:06:02 PM 47.7700 -123.8725 260° West 395 455 30,600 -49 Climbing Seattle Center
Sat 04:07:03 PM 47.7519 -124.0369 261° West 401 461 30,300 -98 Descending Seattle Center
Sat 04:08:04 PM 47.7381 -124.1989 263° West 398 458 30,400 -148 Climbing Seattle Center
Sat 04:09:05 PM 47.7231 -124.3686 263° West 408 470 30,000 -197 Descending Seattle Center
Sat 04:10:06 PM 47.7058 -124.5575 262° West 447 514 30,000 -98 Level Seattle Center
Sat 04:11:07 PM 47.6831 -124.7442 260° West 457 526 29,800  Descending Seattle Center
Sat 04:12:08 PM 47.6575 -124.9269 258° West 455 524 30,000 148 Climbing Seattle Center
Sat 04:13:09 PM 47.6294 -125.1147 258° West 461 531 30,100  Climbing Seattle Center
Sat 04:14:10 PM 47.5903 -125.3292 255° West 456 525 30,000 -49 Descending Seattle Center
Sat 04:15:11 PM 47.5456 -125.5036 249° West 466 536 30,000 -49 Level Seattle Center
Sat 04:16:12 PM 47.4242 -125.5192 185° South 472 543 29,900  Descending Seattle Center
Sat 04:17:13 PM 47.3856 -125.3428 108° East 484 557 30,000 49 Climbing Seattle Center
Sat 04:18:14 PM 47.4875 -125.2411 34° Northeast 478 550 30,000  Level Seattle Center
Sat 04:19:15 PM 47.6150 -125.2375 North 473 544 30,000 -49 Level Seattle Center
Sat 04:20:16 PM 47.6878 -125.0822 55° Northeast 482 555 29,900 -49 Descending Seattle Center
Sat 04:21:17 PM 47.7097 -124.8875 80° East 483 556 29,900 49 Level Seattle Center
Sat 04:22:18 PM 47.7403 -124.6992 76° East 476 548 30,000  Climbing Seattle Center
Sat 04:23:19 PM 47.7736 -124.4969 76° East 497 572 29,900  Descending Seattle Center
Sat 04:24:20 PM 47.8064 -124.2953 76° East 506 582 30,000  Climbing Seattle Center
Sat 04:25:21 PM 47.8450 -124.0519 77° East 508 585 29,900 -836 Descending Seattle Center
Sat 04:26:22 PM 47.8767 -123.8492 77° East 508 585 28,300 -2,016 Descending Seattle Center
Sat 04:27:23 PM 47.9092 -123.6453 77° East 509 586 25,800 -2,607 Descending Seattle Center
Sat 04:28:24 PM 47.9425 -123.4322 77° East 502 578 23,000 -2,656 Descending Seattle Center
Sat 04:29:25 PM 47.9739 -123.2411 76° East 485 558 20,400 -2,459 Descending Seattle Center
Sat 04:30:26 PM 48.0006 -123.0597 78° East 456 525 18,000 -1,525 Descending Seattle Center
Sat 04:31:27 PM 48.0222 -122.8947 79° East 403 464 17,300 -913 Descending Seattle Center
Sat 04:31:58 PM 48.0006 -122.8228 114° Southeast 347 399 16,600 -1,377 Descending Seattle Center
Sat 04:32:28 PM 47.9647 -122.7822 143° Southeast 344 396 15,900 -1,750 Descending Seattle Center
Sat 04:32:46 PM 47.9353 -122.7558 149° Southeast 352 405 15,200 -1,770 Descending Seattle Center
Sat 04:33:29 PM 47.8819 -122.7078 149° Southeast 342 394 14,100 -1,869 Descending Seattle Center
Sat 04:33:47 PM 47.8508 -122.6833 152° Southeast 347 399 13,300 -1,869 Descending Seattle Center
Sat 04:34:30 PM 47.7969 -122.6319 147° Southeast 338 389 12,200 -1,475 Descending Seattle Center
Sat 04:34:48 PM 47.7669 -122.6042 148° Southeast 337 388 11,800 -984 Descending Seattle Center
Sat 04:35:31 PM 47.7133 -122.5572 149° Southeast 322 371 11,200 -1,082 Descending Seattle Center
Sat 04:35:49 PM 47.6928 -122.5394 150° Southeast 301 346 10,700 -1,082 Descending Seattle Center
Sat 04:36:32 PM 47.6414 -122.4942 149° Southeast 308 354 10,100 -689 Descending Seattle Center
Sat 04:36:50 PM 47.6206 -122.4808 157° South 293 337 10,000  Descending Seattle Center
Sat 04:37:33 PM 47.5736 -122.4508 157° South 275 316 10,100  Climbing Seattle Center
Sat 04:37:51 PM 47.5569 -122.4400 156° South 229 264 10,000 -885 Descending Seattle Center
Sat 04:38:34 PM 47.5181 -122.4150 157° South 229 264 9,200 -1,377 Descending Seattle Center
Sat 04:38:52 PM 47.5014 -122.4050 158° South 210 242 8,600 -1,869 Descending Seattle Center
Sat 04:39:35 PM 47.4597 -122.3767 155° Southeast 218 251 7,300 -1,791 Descending Seattle Center
Sat 04:39:59 PM 47.4397 -122.3636 156° South 214 246 6,600 -1,180 Descending Seattle Center
Sat 04:40:36 PM 47.4094 -122.3431 155° Southeast 204 235 6,100 -787 Descending Seattle Center
Sat 04:41:00 PM 47.3897 -122.3322 160° South 190 219 5,800 -1,377 Descending Seattle Center
Sat 04:41:37 PM 47.3631 -122.3122 153° Southeast 187 215 4,700 -1,672 Descending Seattle Center
Sat 04:42:01 PM 47.3414 -122.2997 159° South 180 207 4,100 -689 Descending Seattle Center
Sat 04:42:38 PM 47.3133 -122.2808 155° Southeast 181 208 4,000 -689 Descending Seattle Center
Sat 04:43:02 PM 47.2939 -122.2706 160° South 180 207 3,400 -1,082 Descending Seattle Center
Sat 04:43:39 PM 47.2942 -122.2314 89° East 181 208 2,900 -985 Descending Seattle Center
Sat 04:44:09 PM 47.3061 -122.2050 56° Northeast 182 209 2,300 -787 Descending Seattle Center
Sat 04:44:40 PM 47.3217 -122.1719 55° Northeast 179 206 2,100 -295 Descending Seattle Center
Sat 04:45:10 PM 47.3408 -122.1497 38° Northeast 172 198 2,000  Descending Seattle Center
Sat 04:45:41 PM 47.3667 -122.1644 339° North 188 216 2,100  Climbing Seattle Center
Sat 04:46:05 PM 47.3839 -122.1783 331° Northwest 188 216 2,000  Descending Seattle Center
Sat 04:46:42 PM 47.4078 -122.1997 329° Northwest 174 200 2,100  Climbing Seattle Center
Sat 04:47:06 PM 47.4217 -122.2131 327° Northwest 161 185 2,000 -197 Descending Seattle Center
Sat 04:47:43 PM 47.4450 -122.2317 332° Northwest 160 184 1,900 -537 Descending Seattle Center
Sat 04:48:13 PM 47.4614 -122.2467 328° Northwest 152 175 1,400 -787 Descending Seattle Center
Sat 04:48:44 PM 47.4797 -122.2622 330° Northwest 149 171 1,100 -764 Descending Seattle Center
Sat 04:49:08 PM 47.4922 -122.2722 332° Northwest 136 157 700 -787 Descending Seattle Center
Sat 04:49:45 PM 47.5128 -122.2883 332° Northwest 136 157 300 -367 Descending Seattle Center
Sat 04:50:46 PM 47.5414 -122.3125 330° Northwest 134 154 100 -197 Descending Seattle Center
Sat 04:52:00 PM 47.5300 -122.3020 64° Northeast  Level Estimated
Sat 04:59:00 PM 47.5300 -122.3020 64° Northeast  Level Estimated
Sat 05:00:00 PM 47.5300 -122.3020 64° Northeast  Level Estimated
Sat 05:01:00 PM 47.5300 -122.3020 64° Northeast  Level Estimated
Sat 05:02:00 PM 47.5300 -122.3020 64° Northeast  Level Estimated
Sat 05:03:00 PM 47.5300 -122.3020 64° Northeast  Level Estimated
Sat 05:04:00 PM 47.5300 -122.3020 64° Northeast  Level Estimated
Sat 05:05:00 PM 47.5300 -122.3020 64° Northeast  Level Estimated
Sat 05:06:00 PM 47.5300 -122.3020 64° Northeast  Level Estimated
Sat 05:07:00 PM 47.5300 -122.3020 64° Northeast  Level Estimated
Sat 05:08:00 PM 47.5300 -122.3020 64° Northeast  Level Estimated
Sat 05:09:00 PM 47.5300 -122.3020 64° Northeast  Level Estimated
Sat 05:10:00 PM 47.5300 -122.3020 64° Northeast  Level Estimated
Sat 05:11:00 PM 47.5300 -122.3020 64° Northeast  Level Estimated
Sat 05:12:00 PM 47.5300 -122.3020 64° Northeast  Level Estimated
Sat 05:13:00 PM 47.5300 -122.3020 64° Northeast  Level Estimated
Sat 05:14:00 PM 47.5300 -122.3020 64° Northeast  Level Estimated
Sat 05:15:00 PM 47.5300 -122.3020 64° Northeast  Level Estimated
Sat 05:16:00 PM 47.5300 -122.3020 64° Northeast  Level Estimated
Sat 05:17:00 PM 47.5300 -122.3020 64° Northeast  Level Estimated
Sat 05:18:00 PM 47.5300 -122.3020 64° Northeast  Level Estimated
Sat 05:19:00 PM 47.5300 -122.3020 64° Northeast  Level Estimated
Sat 05:20:00 PM 47.5300 -122.3020 64° Northeast  Level Estimated
Sat 05:21:00 PM 47.5300 -122.3020 64° Northeast  Level Estimated
Sat 05:22:00 PM 47.5300 -122.3020 64° Northeast  Level Estimated
Sat 05:23:00 PM 47.5300 -122.3020 64° Northeast  Level Estimated
Sat 05:24:00 PM 47.5300 -122.3020 64° Northeast  Level Estimated
Sat 05:25:00 PM 47.5300 -122.3020 64° Northeast  Level Estimated
Sat 05:26:00 PM 47.5300 -122.3020 64° Northeast  Level Estimated
Sat 05:27:00 PM 47.5300 -122.3020 64° Northeast  Level Estimated
Sat 05:28:00 PM 47.5300 -122.3020 64° Northeast  Level Estimated
Sat 05:29:00 PM 47.5300 -122.3020 64° Northeast  Level Estimated
Sat 05:30:00 PM 47.5300 -122.3020 64° Northeast  Level Estimated
Sat 05:31:00 PM 47.5300 -122.3020 64° Northeast  Level Estimated
Sat 05:32:00 PM 47.5300 -122.3020 64° Northeast  Level Estimated
Sat 05:33:00 PM 47.5300 -122.3020 64° Northeast  Level Estimated
Sat 05:34:00 PM 47.5300 -122.3020 64° Northeast  Level Estimated
Sat 05:35:00 PM 47.5300 -122.3020 64° Northeast  Level Estimated
Sat 05:36:00 PM 47.5300 -122.3020 64° Northeast  Level Estimated
Sat 05:37:00 PM 47.5300 -122.3020 64° Northeast  Level Estimated
Sat 05:38:00 PM 47.5300 -122.3020 64° Northeast  Level Estimated
Sat 05:39:00 PM 47.5300 -122.3020 64° Northeast  Level Estimated
Sat 05:40:00 PM 47.5300 -122.3020 64° Northeast  Level Estimated
Sat 05:41:00 PM 47.5300 -122.3020 64° Northeast  Level Estimated
Sat 05:42:00 PM 47.5300 -122.3020 64° Northeast  Level Estimated
Sat 05:43:00 PM 47.5300 -122.3020 64° Northeast  Level Estimated
Sat 05:44:00 PM 47.5300 -122.3020 64° Northeast  Level Estimated
Sat 05:45:00 PM 47.5300 -122.3020 64° Northeast  Level Estimated
Sat 05:46:00 PM 47.5300 -122.3020 64° Northeast  Level Estimated
Sat 05:47:00 PM 47.5300 -122.3020 64° Northeast  Level Estimated
Sat 05:48:00 PM 47.5300 -122.3020 64° Northeast  Level Estimated
Sat 05:49:00 PM 47.5300 -122.3020 64° Northeast  Level Estimated
Sat 05:50:00 PM 47.5300 -122.3020 64° Northeast  Level Estimated
Sat 05:51:00 PM 47.5300 -122.3020 64° Northeast  Level Estimated
Sat 05:52:00 PM 47.5300 -122.3020 64° Northeast  Level Estimated
Sat 05:53:00 PM 47.5300 -122.3020 64° Northeast  Level Estimated
Sat 05:54:00 PM 47.5300 -122.3020 64° Northeast  Level Estimated
Sat 05:55:00 PM 47.5300 -122.3020 64° Northeast  Level Estimated
Sat 05:56:00 PM 47.5300 -122.3020 64° Northeast  Level Estimated
Sat 05:57:00 PM 47.5300 -122.3020 64° Northeast  Level Estimated
Sat 05:58:00 PM 47.5300 -122.3020 64° Northeast  Level Estimated
Sat 05:59:00 PM 47.5300 -122.3020 64° Northeast  Level Estimated
Sat 06:00:00 PM 47.5300 -122.3020 64° Northeast  Level Estimated
Sat 06:01:00 PM 47.5300 -122.3020 64° Northeast  Level Estimated
Sat 06:02:00 PM 47.5300 -122.3020 64° Northeast  Level Estimated
Sat 06:03:00 PM 47.5300 -122.3020 64° Northeast  Level Estimated
Sat 06:04:00 PM 47.5300 -122.3020 64° Northeast  Level Estimated
Sat 06:05:00 PM 47.5300 -122.3020 64° Northeast  Level Estimated
Sat 06:06:00 PM 47.5300 -122.3020 64° Northeast  Level Estimated
Sat 06:07:00 PM 47.5300 -122.3020 64° Northeast  Level Estimated
Sat 06:08:00 PM 47.5300 -122.3020 64° Northeast  Level Estimated
Sat 06:09:00 PM 47.5300 -122.3020 64° Northeast  Level Estimated
Sat 06:10:00 PM 47.5300 -122.3020 64° Northeast  Level Estimated
Sat 06:11:00 PM 47.5300 -122.3020 64° Northeast  Level Estimated
Sat 06:12:00 PM 47.5300 -122.3020 64° Northeast  Level Estimated
Sat 06:13:00 PM 47.5300 -122.3020 64° Northeast  Level Estimated
Sat 06:14:00 PM 47.5300 -122.3020 64° Northeast  Level Estimated
Sat 06:15:00 PM 47.5300 -122.3020 64° Northeast  Level Estimated
Sat 06:16:00 PM 47.5300 -122.3020 64° Northeast  Level Estimated
Sat 06:17:00 PM 47.5300 -122.3020 64° Northeast  Level Estimated
Sat 06:18:00 PM 47.5300 -122.3020 64° Northeast  Level Estimated
Sat 06:19:00 PM 47.5300 -122.3020 64° Northeast  Level Estimated
Sat 06:20:00 PM 47.5300 -122.3020 64° Northeast  Level Estimated
Sat 06:21:00 PM 47.5300 -122.3020 64° Northeast  Level Estimated
Sat 06:22:00 PM 47.5300 -122.3020 64° Northeast  Level Estimated
Sat 06:23:00 PM 47.5300 -122.3020 64° Northeast  Level Estimated
Sat 06:24:00 PM 47.5300 -122.3020 64° Northeast  Level Estimated
Sat 06:25:00 PM 47.5300 -122.3020 64° Northeast  Level Estimated
Sat 06:26:00 PM 47.5300 -122.3020 64° Northeast  Level Estimated
Sat 06:27:00 PM 47.5300 -122.3020 64° Northeast  Level Estimated
Sat 06:28:00 PM 47.5300 -122.3020 64° Northeast  Level Estimated
Sat 06:29:00 PM 47.5300 -122.3020 64° Northeast  Level Estimated
Sat 06:30:00 PM 47.5300 -122.3020 64° Northeast  Level Estimated
Sat 06:31:00 PM 47.5300 -122.3020 64° Northeast  Level Estimated
Sat 06:32:00 PM 47.5300 -122.3020 64° Northeast  Level Estimated
Sat 06:33:00 PM 47.5300 -122.3020 64° Northeast  Level Estimated
Sat 06:34:00 PM 47.5300 -122.3020 64° Northeast  Level Estimated
Sat 06:35:00 PM 47.5300 -122.3020 64° Northeast  Level Estimated
Sat 06:36:00 PM 47.5300 -122.3020 64° Northeast  Level Estimated
Sat 06:37:00 PM 47.5300 -122.3020 64° Northeast  Level Estimated
Sat 06:38:00 PM 47.5300 -122.3020 64° Northeast  Level Estimated
Sat 06:39:00 PM 47.5300 -122.3020 64° Northeast  Level Estimated
Sat 06:40:00 PM 47.5300 -122.3020 64° Northeast  Level Estimated
Sat 06:41:00 PM 47.5300 -122.3020 64° Northeast  Level Estimated
Sat 06:42:00 PM 47.5300 -122.3020 64° Northeast  Level Estimated
Sat 06:43:00 PM 47.5300 -122.3020 64° Northeast  Level Estimated
Sat 06:44:00 PM 47.5300 -122.3020 64° Northeast  Level Estimated
Sat 06:45:00 PM 47.5300 -122.3020 64° Northeast  Level Estimated
Sat 06:46:00 PM 47.5300 -122.3020 64° Northeast  Level Estimated
Sat 06:47:00 PM 47.5300 -122.3020 64° Northeast  Level Estimated
Sat 06:48:00 PM 47.5300 -122.3020 64° Northeast  Level Estimated
Sat 06:49:00 PM 47.5300 -122.3020 64° Northeast  Level Estimated
Sat 06:50:00 PM 47.5300 -122.3020 64° Northeast  Level Estimated
Sat 06:51:00 PM 47.5300 -122.3020 64° Northeast  Level Estimated
Sat 06:52:00 PM 47.5300 -122.3020 64° Northeast  Level Estimated
Sat 06:53:00 PM 47.5300 -122.3020 64° Northeast  Level Estimated
Sat 06:54:00 PM 47.5300 -122.3020 64° Northeast  Level Estimated
Sat 06:55:00 PM 47.5300 -122.3020 64° Northeast  Level Estimated
Sat 06:56:00 PM 47.5300 -122.3020 64° Northeast  Level Estimated
Sat 06:57:00 PM 47.5300 -122.3020 64° Northeast  Level Estimated
Sat 06:58:00 PM 47.5300 -122.3020 64° Northeast  Level Estimated
Sat 06:59:00 PM 47.5300 -122.3020 64° Northeast  Level Estimated
Sat 07:00:00 PM 47.5300 -122.3020 64° Northeast  Level Estimated
Sat 07:01:00 PM 47.5300 -122.3020 64° Northeast  Level Estimated
Sat 07:02:00 PM 47.5300 -122.3020 64° Northeast  Level Estimated
Sat 07:03:00 PM 47.5300 -122.3020 64° Northeast  Level Estimated
Sat 07:04:00 PM 47.5300 -122.3020 64° Northeast  Level Estimated
Sat 07:05:00 PM 47.5300 -122.3020 64° Northeast  Level Estimated
Sat 07:06:00 PM 47.5300 -122.3020 64° Northeast  Level Estimated
Sat 07:07:00 PM 47.5300 -122.3020 64° Northeast  Level Estimated
Sat 07:08:00 PM 47.5300 -122.3020 64° Northeast  Level Estimated
Sat 07:09:00 PM 47.5300 -122.3020 64° Northeast  Level Estimated
Sat 07:10:00 PM 47.5300 -122.3020 64° Northeast  Level Estimated
Sat 07:11:00 PM 47.5300 -122.3020 64° Northeast  Level Estimated
Sat 07:12:00 PM 47.5300 -122.3020 64° Northeast  Level Estimated
Sat 07:13:00 PM 47.5300 -122.3020 64° Northeast  Level Estimated
Sat 07:14:00 PM 47.5300 -122.3020 64° Northeast  Level Estimated
Sat 07:15:00 PM 47.5300 -122.3020 64° Northeast  Level Estimated
Sat 07:16:00 PM 47.5300 -122.3020 64° Northeast  Level Estimated
Sat 07:17:00 PM 47.5300 -122.3020 64° Northeast  Level Estimated
Sat 07:18:00 PM 47.5300 -122.3020 64° Northeast  Level Estimated
Sat 07:19:00 PM 47.5300 -122.3020 64° Northeast  Level Estimated
Sat 07:20:00 PM 47.5300 -122.3020 64° Northeast  Level Estimated
Sat 07:21:00 PM 47.5300 -122.3020 64° Northeast  Level Estimated
Sat 07:22:00 PM 47.5300 -122.3020 64° Northeast  Level Estimated
Sat 07:23:00 PM 47.5300 -122.3020 64° Northeast  Level Estimated
Sat 07:24:00 PM 47.5300 -122.3020 64° Northeast  Level Estimated
Sat 07:25:00 PM 47.5300 -122.3020 64° Northeast  Level Estimated
Sat 07:26:00 PM 47.5300 -122.3020 64° Northeast  Level Estimated

Login

Don't have an account? Register now (free) for customized features, flight alerts, and more!